Time;durP1;ratioP1;P1;durP2;ratioP2;P2;SDS_P1;SDS_P2;PMS_P1;PMS_P2;Temp;Humidity;BMP_temperature;BMP_pressure;BME280_temperature;BME280_humidity;BME280_pressure;Samples;Min_cycle;Max_cycle;Signal;HPM_P1;HPM_P2
2022/03/27 00:02:21;;;;;;;27.00;17.93;;;;;;;3.35;100.00;97371.16;5047684;27;105248;-58
2022/03/27 00:04:48;;;;;;;27.03;17.67;;;;;;;3.16;100.00;97376.94;5051599;27;101769;-58
2022/03/27 00:07:15;;;;;;;26.57;17.70;;;;;;;2.98;100.00;97377.28;5049194;27;102769;-58
2022/03/27 00:09:42;;;;;;;25.77;18.53;;;;;;;2.87;100.00;97371.63;5048189;27;101944;-58
2022/03/27 00:12:10;;;;;;;25.27;18.20;;;;;;;2.98;100.00;97376.47;5047917;27;105541;-58
2022/03/27 00:14:37;;;;;;;26.37;18.33;;;;;;;2.96;100.00;97381.09;5049047;27;102654;-58
2022/03/27 00:17:05;;;;;;;27.63;19.17;;;;;;;2.86;100.00;97383.16;5047963;27;102190;-58
2022/03/27 00:19:34;;;;;;;25.30;17.50;;;;;;;2.68;100.00;97378.22;5049538;27;102528;-57
2022/03/27 00:22:02;;;;;;;25.00;17.77;;;;;;;2.85;100.00;97376.28;5047445;27;105007;-58
2022/03/27 00:24:28;;;;;;;25.90;18.43;;;;;;;2.88;100.00;97378.53;5051642;27;101695;-58
2022/03/27 00:26:56;;;;;;;25.70;16.93;;;;;;;2.77;100.00;97378.94;5047280;27;105348;-58
2022/03/27 00:29:23;;;;;;;24.93;16.90;;;;;;;2.76;100.00;97372.06;5048036;27;101980;-58
2022/03/27 00:31:51;;;;;;;25.70;17.50;;;;;;;2.86;100.00;97372.63;5047915;27;105830;-58
2022/03/27 00:34:21;;;;;;;25.40;17.13;;;;;;;2.86;100.00;97372.63;5047384;27;104974;-58
2022/03/27 00:36:50;;;;;;;24.30;17.10;;;;;;;3.01;100.00;97376.13;5047680;27;102159;-58
2022/03/27 00:39:17;;;;;;;23.53;16.40;;;;;;;3.05;100.00;97372.09;5047708;27;104840;-58
2022/03/27 00:41:45;;;;;;;26.33;17.63;;;;;;;2.96;100.00;97375.84;5048649;27;104412;-58
2022/03/27 00:44:13;;;;;;;23.07;16.43;;;;;;;2.95;100.00;97375.00;5047752;27;101880;-57
2022/03/27 00:46:39;;;;;;;23.50;16.70;;;;;;;2.97;100.00;97377.47;5050362;27;105342;-58
2022/03/27 00:49:06;;;;;;;24.47;16.17;;;;;;;2.81;100.00;97377.59;5047761;27;101916;-57
2022/03/27 00:51:34;;;;;;;24.40;17.07;;;;;;;2.88;100.00;97370.63;5047508;27;103849;-58
2022/03/27 00:54:04;;;;;;;23.00;16.40;;;;;;;2.75;100.00;97367.81;5047375;27;105734;-58
2022/03/27 00:56:31;;;;;;;22.97;16.13;;;;;;;2.73;100.00;97375.06;5047522;27;103353;-57
2022/03/27 00:58:58;;;;;;;22.13;16.30;;;;;;;2.72;100.00;97368.16;5047399;27;105280;-57
2022/03/27 01:01:35;;;;;;;22.90;16.80;;;;;;;2.74;100.00;97364.38;5046725;27;104394;-58
2022/03/27 01:04:02;;;;;;;25.03;16.80;;;;;;;2.46;100.00;97373.00;5047482;27;101874;-57
2022/03/27 01:06:35;;;;;;;26.20;16.87;;;;;;;2.37;100.00;97374.03;5047513;27;105064;-57
2022/03/27 01:11:51;;;;;;;22.20;15.47;;;;;;;2.04;100.00;97364.75;5047602;27;105547;-58
2022/03/27 01:14:26;;;;;;;26.10;16.33;;;;;;;2.27;100.00;97363.78;5048199;27;101678;-57
2022/03/27 01:16:59;;;;;;;24.03;17.07;;;;;;;2.11;100.00;97363.06;5047345;27;102085;-58
2022/03/27 01:19:27;;;;;;;24.00;15.80;;;;;;;2.15;100.00;97359.94;5048886;27;102675;-57
2022/03/27 01:21:57;;;;;;;30.53;17.03;;;;;;;2.01;100.00;97357.22;5046726;27;103937;-57
2022/03/27 01:24:24;;;;;;;25.60;17.07;;;;;;;2.01;100.00;97357.22;5048724;27;101657;-58
2022/03/27 01:26:52;;;;;;;24.93;16.80;;;;;;;2.09;100.00;97363.22;5047188;27;105629;-57
2022/03/27 01:29:20;;;;;;;23.77;16.43;;;;;;;2.16;100.00;97358.94;5046521;27;105770;-58
2022/03/27 01:31:51;;;;;;;25.97;16.17;;;;;;;2.29;100.00;97351.28;5053036;27;101962;-57
2022/03/27 01:34:19;;;;;;;23.57;16.87;;;;;;;2.16;100.00;97356.31;5049983;27;105835;-58
2022/03/27 01:36:46;;;;;;;22.70;15.83;;;;;;;2.07;100.00;97359.97;5052049;27;101826;-57
2022/03/27 01:39:16;;;;;;;23.63;16.10;;;;;;;2.06;100.00;97357.53;5051909;27;102803;-58
2022/03/27 01:41:44;;;;;;;22.60;16.20;;;;;;;2.04;100.00;97360.34;5051424;27;104106;-58
2022/03/27 01:44:15;;;;;;;22.37;16.23;;;;;;;1.94;100.00;97357.13;5050244;27;102626;-58
2022/03/27 01:46:43;;;;;;;23.17;16.10;;;;;;;1.78;100.00;97351.97;5050395;27;105092;-58
2022/03/27 01:49:12;;;;;;;23.67;16.07;;;;;;;1.66;100.00;97342.03;5049937;27;105727;-57
2022/03/27 01:51:42;;;;;;;21.40;15.83;;;;;;;1.63;100.00;97347.59;5050310;27;101909;-57
2022/03/27 01:54:10;;;;;;;24.77;16.10;;;;;;;1.73;100.00;97354.28;5053460;27;104064;-58
2022/03/27 01:56:38;;;;;;;24.10;16.10;;;;;;;1.57;100.00;97351.75;5049749;27;101955;-57
2022/03/27 01:59:06;;;;;;;23.33;15.83;;;;;;;1.36;100.00;97350.69;5049722;27;105040;-57
2022/03/27 02:01:34;;;;;;;23.33;16.03;;;;;;;1.46;100.00;97356.53;5049768;27;104022;-58
2022/03/27 02:04:03;;;;;;;23.97;16.27;;;;;;;1.44;100.00;97353.28;5050101;27;101855;-58
2022/03/27 02:06:31;;;;;;;22.30;15.67;;;;;;;1.43;100.00;97354.28;5050242;27;105096;-57
2022/03/27 02:08:59;;;;;;;26.13;16.50;;;;;;;1.37;100.00;97352.34;5049590;27;105611;-57
2022/03/27 02:11:26;;;;;;;23.50;16.43;;;;;;;1.37;100.00;97353.13;5049977;27;101693;-58
2022/03/27 02:13:55;;;;;;;21.87;16.47;;;;;;;1.24;100.00;97357.28;5051284;27;104415;-57
2022/03/27 02:16:22;;;;;;;22.07;15.03;;;;;;;1.41;100.00;97358.84;5052654;27;101735;-57
2022/03/27 02:18:50;;;;;;;26.97;17.47;;;;;;;1.59;100.00;97356.81;5049940;27;105209;-57
2022/03/27 02:21:18;;;;;;;24.13;17.00;;;;;;;1.63;100.00;97348.44;5050748;27;102522;-58
2022/03/27 02:23:45;;;;;;;23.07;16.77;;;;;;;1.56;100.00;97357.16;5033171;27;101884;-58
2022/03/27 02:26:12;;;;;;;24.17;16.17;;;;;;;1.45;100.00;97360.16;5049924;27;105163;-57
2022/03/27 02:28:39;;;;;;;25.73;17.23;;;;;;;1.60;100.00;97358.44;5049237;27;103972;-57
2022/03/27 02:31:08;;;;;;;25.17;17.20;;;;;;;1.71;100.00;97355.44;5049898;27;102100;-58
2022/03/27 02:33:37;;;;;;;22.50;17.00;;;;;;;1.73;100.00;97359.53;5049745;27;105753;-57
2022/03/27 02:36:06;;;;;;;25.37;17.50;;;;;;;1.79;100.00;97358.00;5052479;27;105611;-57
2022/03/27 02:38:34;;;;;;;24.90;17.30;;;;;;;1.88;100.00;97352.56;5049316;27;106402;-57
2022/03/27 02:41:00;;;;;;;26.40;18.10;;;;;;;1.93;100.00;97359.91;5049099;27;103768;-58
2022/03/27 02:43:28;;;;;;;26.17;17.97;;;;;;;1.88;100.00;97364.84;5048345;27;101920;-57
2022/03/27 02:45:55;;;;;;;26.47;17.43;;;;;;;1.97;100.00;97367.25;5047973;27;105585;-57
2022/03/27 02:48:24;;;;;;;25.77;16.83;;;;;;;1.91;100.00;97367.16;5049056;27;105429;-57
2022/03/27 02:50:52;;;;;;;22.90;15.77;;;;;;;1.88;100.00;97367.47;5049123;27;102660;-58
2022/03/27 02:53:19;;;;;;;25.57;17.10;;;;;;;1.81;100.00;97366.53;5049583;27;104885;-58
2022/03/27 02:55:45;;;;;;;25.27;16.97;;;;;;;1.87;100.00;97365.84;5048257;27;103711;-58
2022/03/27 02:58:13;;;;;;;27.80;17.20;;;;;;;1.81;100.00;97364.72;5052261;27;101923;-57
2022/03/27 03:00:41;;;;;;;23.67;16.87;;;;;;;1.59;100.00;97367.31;5048818;27;105292;-58
2022/03/27 03:03:08;;;;;;;22.33;16.30;;;;;;;1.37;100.00;97368.06;5049343;27;102243;-57
2022/03/27 03:05:38;;;;;;;24.77;16.17;;;;;;;1.10;100.00;97364.03;5049302;27;105821;-58
2022/03/27 03:08:06;;;;;;;25.30;16.40;;;;;;;1.18;100.00;97363.19;5050237;27;102630;-57
2022/03/27 03:10:34;;;;;;;23.63;15.43;;;;;;;1.12;100.00;97364.69;5049278;27;101865;-58
2022/03/27 03:13:01;;;;;;;23.20;16.53;;;;;;;0.99;100.00;97358.34;5048907;27;105248;-58
2022/03/27 03:15:29;;;;;;;22.23;16.03;;;;;;;0.90;100.00;97368.03;5048466;27;105845;-58
2022/03/27 03:17:56;;;;;;;24.13;15.80;;;;;;;0.83;100.00;97368.84;5048688;27;101842;-57
2022/03/27 03:20:24;;;;;;;26.23;16.87;;;;;;;0.81;100.00;97373.41;5051836;27;103716;-57
2022/03/27 03:22:53;;;;;;;25.37;16.07;;;;;;;0.83;100.00;97371.47;5049057;27;101851;-57
2022/03/27 03:25:20;;;;;;;26.00;17.27;;;;;;;0.65;100.00;97370.81;5048682;27;105199;-58
2022/03/27 03:27:47;;;;;;;24.90;16.97;;;;;;;0.78;100.00;97374.56;5048280;27;105089;-58
2022/03/27 03:30:16;;;;;;;25.23;15.93;;;;;;;0.86;100.00;97373.75;5048826;27;101859;-58
2022/03/27 03:32:43;;;;;;;26.87;16.33;;;;;;;0.88;100.00;97377.81;5032059;27;104760;-57
2022/03/27 03:35:11;;;;;;;23.50;16.37;;;;;;;1.05;100.00;97376.81;5048212;27;105413;-56
2022/03/27 03:37:38;;;;;;;25.37;17.00;;;;;;;1.19;100.00;97376.13;5050209;27;102243;-57
2022/03/27 03:40:09;;;;;;;25.67;17.27;;;;;;;1.29;100.00;97375.94;5048454;27;105102;-58
2022/03/27 03:42:37;;;;;;;27.90;18.00;;;;;;;1.21;100.00;97378.59;5053143;27;102346;-57
2022/03/27 03:45:05;;;;;;;24.80;17.50;;;;;;;1.26;100.00;97381.53;5031745;27;105548;-57
2022/03/27 03:47:32;;;;;;;27.03;17.70;;;;;;;1.26;100.00;97381.53;5031370;27;105781;-58
2022/03/27 03:49:59;;;;;;;23.73;16.77;;;;;;;1.36;100.00;97380.34;5048500;27;101925;-58
2022/03/27 03:52:26;;;;;;;28.33;18.07;;;;;;;1.42;100.00;97371.78;5048529;27;104095;-58
2022/03/27 03:54:53;;;;;;;26.60;17.70;;;;;;;1.37;100.00;97376.72;5047287;27;105986;-57
2022/03/27 03:57:22;;;;;;;22.73;16.97;;;;;;;1.36;100.00;97384.75;5048207;27;102057;-57
2022/03/27 03:59:49;;;;;;;24.10;16.97;;;;;;;1.40;100.00;97380.81;5048226;27;104809;-58
2022/03/27 04:02:18;;;;;;;25.87;16.63;;;;;;;1.40;100.00;97383.44;5031272;27;105852;-58
2022/03/27 04:04:46;;;;;;;24.53;16.77;;;;;;;0.95;100.00;97380.59;5051557;27;101898;-58
2022/03/27 04:07:13;;;;;;;26.40;17.60;;;;;;;0.72;100.00;97380.47;5047662;27;105791;-57
2022/03/27 04:09:40;;;;;;;26.80;18.00;;;;;;;0.68;100.00;97380.97;5048086;27;101972;-58
2022/03/27 04:12:09;;;;;;;24.60;17.37;;;;;;;0.88;100.00;97377.03;5048239;27;104788;-57
2022/03/27 04:14:39;;;;;;;28.87;18.10;;;;;;;0.81;100.00;97376.03;5047732;27;104670;-57
2022/03/27 04:17:06;;;;;;;24.57;16.67;;;;;;;0.60;100.00;97373.16;5047974;27;101836;-57
2022/03/27 04:19:33;;;;;;;25.63;17.03;;;;;;;0.61;100.00;97377.38;5047962;27;104801;-57
2022/03/27 04:22:00;;;;;;;28.27;18.10;;;;;;;0.75;100.00;97366.22;5047626;27;105579;-57
2022/03/27 04:24:27;;;;;;;27.10;18.40;;;;;;;0.72;100.00;97367.38;5053077;27;101976;-55
2022/03/27 04:26:55;;;;;;;25.57;16.73;;;;;;;0.89;100.00;97370.81;5047366;27;105252;-57
2022/03/27 04:29:22;;;;;;;26.70;18.33;;;;;;;0.96;100.00;97369.97;5047929;27;101864;-57
2022/03/27 04:31:51;;;;;;;27.47;17.30;;;;;;;0.90;100.00;97372.44;5048054;27;105690;-58
2022/03/27 04:34:17;;;;;;;25.97;17.60;;;;;;;0.93;100.00;97369.50;5047243;27;104980;-57
2022/03/27 04:36:44;;;;;;;26.93;17.67;;;;;;;1.09;100.00;97369.47;5047888;27;101905;-57
2022/03/27 04:39:11;;;;;;;27.23;18.80;;;;;;;0.92;100.00;97365.22;5047556;27;105280;-57
2022/03/27 04:41:39;;;;;;;26.07;18.77;;;;;;;0.77;100.00;97366.91;5048929;27;102944;-58
2022/03/27 04:44:06;;;;;;;26.20;18.20;;;;;;;0.86;100.00;97377.19;5047710;27;102010;-55
2022/03/27 04:46:33;;;;;;;30.00;21.10;;;;;;;0.79;100.00;97370.16;5050640;27;105656;-58
2022/03/27 04:49:02;;;;;;;28.67;20.37;;;;;;;0.83;100.00;97374.09;5047814;27;101870;-57
2022/03/27 04:51:29;;;;;;;27.40;18.40;;;;;;;0.76;100.00;97373.09;5047465;27;105795;-58
2022/03/27 04:53:56;;;;;;;26.60;18.57;;;;;;;0.80;100.00;97364.75;5047106;27;105748;-56
2022/03/27 04:56:23;;;;;;;23.43;16.63;;;;;;;0.75;100.00;97367.06;5047101;27;101839;-58
2022/03/27 04:58:50;;;;;;;24.47;17.50;;;;;;;0.67;100.00;97366.25;5047222;27;105267;-58
2022/03/27 05:01:17;;;;;;;25.47;16.57;;;;;;;0.70;100.00;97368.53;5047063;27;105215;-58
2022/03/27 05:03:44;;;;;;;26.03;17.33;;;;;;;0.77;100.00;97372.94;5047305;27;101850;-58
2022/03/27 05:06:13;;;;;;;25.67;17.63;;;;;;;0.69;100.00;97383.44;5048776;27;105104;-58
2022/03/27 05:08:40;;;;;;;32.60;18.73;;;;;;;0.75;100.00;97376.69;5053930;27;105912;-58
2022/03/27 05:11:08;;;;;;;28.03;18.07;;;;;;;0.82;100.00;97377.69;5051053;27;105206;-58
2022/03/27 05:13:36;;;;;;;28.33;17.53;;;;;;;0.75;100.00;97384.56;5052058;27;102741;-57
2022/03/27 05:16:03;;;;;;;23.57;17.03;;;;;;;0.56;100.00;97377.06;5050721;27;101816;-57
2022/03/27 05:18:30;;;;;;;29.27;18.23;;;;;;;0.58;100.00;97375.09;5050861;27;105155;-57
2022/03/27 05:20:57;;;;;;;27.20;18.70;;;;;;;0.57;100.00;97369.06;5051599;27;102654;-57
2022/03/27 05:23:26;;;;;;;23.77;17.27;;;;;;;0.37;100.00;97378.22;5050973;27;102076;-57
2022/03/27 05:25:52;;;;;;;24.90;16.60;;;;;;;0.19;100.00;97374.09;5050677;27;105538;-58
2022/03/27 05:28:19;;;;;;;24.43;16.77;;;;;;;0.56;100.00;97377.06;5051502;27;102722;-58
2022/03/27 05:30:47;;;;;;;25.50;17.37;;;;;;;0.49;100.00;97376.06;5054113;27;101851;-58
2022/03/27 05:33:15;;;;;;;27.40;17.63;;;;;;;0.42;100.00;97369.84;5050193;27;105760;-58
2022/03/27 05:35:42;;;;;;;28.17;18.60;;;;;;;0.48;100.00;97379.66;5050530;27;101901;-58
2022/03/27 05:38:09;;;;;;;26.13;18.00;;;;;;;0.61;100.00;97378.19;5052113;27;103027;-58
2022/03/27 05:40:38;;;;;;;24.23;17.13;;;;;;;0.86;100.00;97379.81;5049779;27;105179;-58
2022/03/27 05:43:05;;;;;;;27.50;18.17;;;;;;;1.00;100.00;97376.50;5050607;27;101780;-58
2022/03/27 05:45:32;;;;;;;26.67;18.23;;;;;;;1.14;100.00;97367.13;5050455;27;105591;-58
2022/03/27 05:47:59;;;;;;;28.77;17.83;;;;;;;1.28;100.00;97362.03;5049800;27;105073;-58
2022/03/27 05:50:50;;;;;;;31.53;18.40;;;;;;;1.26;100.00;97366.59;5050300;27;101898;-58
2022/03/27 05:53:17;;;;;;;26.33;17.57;;;;;;;1.38;100.00;97365.25;5053534;27;105538;-58
2022/03/27 05:55:47;;;;;;;25.33;16.97;;;;;;;1.41;100.00;97364.09;5050394;27;101856;-58
2022/03/27 05:58:15;;;;;;;27.83;17.70;;;;;;;1.42;100.00;97365.75;5050507;27;104756;-58
2022/03/27 06:00:54;;;;;;;26.30;17.70;;;;;;;1.68;100.00;97355.78;5049817;27;106066;-58
2022/03/27 06:03:22;;;;;;;29.03;19.07;;;;;;;1.96;100.00;97356.94;5050418;27;101862;-59
2022/03/27 06:05:49;;;;;;;27.60;18.67;;;;;;;2.10;100.00;97369.31;5050531;27;105485;-58
2022/03/27 06:08:17;;;;;;;27.40;17.87;;;;;;;2.33;100.00;97364.88;5051345;27;102963;-58
2022/03/27 06:10:51;;;;;;;29.53;18.60;;;;;;;2.52;100.00;97370.47;5050472;27;101867;-58
2022/03/27 06:13:58;;;;;;;26.70;18.67;;;;;;;2.64;100.00;97365.63;5050516;27;105602;-58
2022/03/27 06:16:25;;;;;;;25.87;18.47;;;;;;;2.64;100.00;97374.31;5052992;27;105089;-58
2022/03/27 06:18:52;;;;;;;29.93;20.00;;;;;;;2.80;100.00;97373.34;5050320;27;103965;-58
2022/03/27 06:21:38;;;;;;;28.27;19.13;;;;;;;2.93;100.00;97384.06;5049314;27;106287;-58
2022/03/27 06:24:06;;;;;;;30.37;19.27;;;;;;;3.09;100.00;97386.53;5049791;27;103137;-58
2022/03/27 06:26:34;;;;;;;30.27;19.60;;;;;;;3.12;100.00;97381.72;5050029;27;105170;-58
2022/03/27 06:29:01;;;;;;;26.90;19.37;;;;;;;3.19;100.00;97377.41;5049341;27;105243;-58
2022/03/27 06:31:51;;;;;;;29.17;19.30;;;;;;;3.59;100.00;97386.63;5050030;27;101950;-58
2022/03/27 06:34:19;;;;;;;27.23;19.77;;;;;;;3.70;100.00;97394.06;5051463;27;102561;-58
2022/03/27 06:36:46;;;;;;;29.20;21.10;;;;;;;3.91;100.00;97394.94;5052725;27;105803;-58
2022/03/27 06:39:13;;;;;;;30.03;22.40;;;;;;;4.28;100.00;97396.56;5049716;27;105243;-59
2022/03/27 06:41:48;;;;;;;30.07;21.30;;;;;;;4.52;100.00;97398.81;5050287;27;102622;-58
2022/03/27 06:44:24;;;;;;;30.37;21.20;;;;;;;4.76;100.00;97395.81;5049948;27;101876;-59
2022/03/27 06:46:51;;;;;;;32.13;23.07;;;;;;;5.05;100.00;97395.66;5049595;27;102846;-59
2022/03/27 06:49:18;;;;;;;33.00;23.13;;;;;;;5.07;100.00;97391.03;5048973;27;105602;-59
2022/03/27 06:52:26;;;;;;;32.37;22.93;;;;;;;5.08;100.00;97401.34;5049633;27;101851;-59
2022/03/27 06:54:54;;;;;;;36.73;24.67;;;;;;;5.43;100.00;97399.56;5049614;27;105223;-59
2022/03/27 06:57:23;;;;;;;41.20;26.77;;;;;;;5.64;100.00;97395.03;5048862;27;103885;-59
2022/03/27 07:05:22;;;;;;;31.17;23.37;;;;;;;6.33;100.00;97387.84;5049465;27;101760;-59
2022/03/27 07:07:49;;;;;;;35.30;22.13;;;;;;;6.39;100.00;97392.31;5049422;27;104963;-59
2022/03/27 07:10:48;;;;;;;30.10;21.13;;;;;;;6.56;100.00;97393.56;5048802;27;105356;-59
2022/03/27 07:14:03;;;;;;;31.97;21.87;;;;;;;6.93;100.00;97393.00;5049339;27;101968;-59
2022/03/27 07:16:32;;;;;;;29.50;21.10;;;;;;;7.08;100.00;97393.59;5049204;27;104852;-59
2022/03/27 07:18:59;;;;;;;28.63;19.93;;;;;;;7.14;100.00;97398.09;5048475;27;105323;-59
2022/03/27 07:21:27;;;;;;;29.87;20.57;;;;;;;7.38;100.00;97390.34;5048980;27;101926;-59
2022/03/27 07:23:54;;;;;;;27.07;20.00;;;;;;;7.68;100.00;97391.47;5052170;27;105594;-59
2022/03/27 07:26:21;;;;;;;29.40;19.50;;;;;;;7.69;100.00;97392.31;5048981;27;101842;-59
2022/03/27 07:28:50;;;;;;;25.70;19.10;;;;;;;7.85;100.00;97402.44;5048248;27;105652;-59
2022/03/27 07:31:18;;;;;;;24.50;19.17;;;;;;;8.08;100.00;97402.78;5048512;27;105437;-59
2022/03/27 07:33:48;;;;;;;26.23;18.30;;;;;;;8.34;100.00;97397.38;5048813;27;102190;-59
2022/03/27 07:36:14;;;;;;;25.47;19.20;;;;;;;8.39;100.00;97398.38;5048889;27;105378;-59
2022/03/27 07:38:42;;;;;;;27.57;18.53;;;;;;;8.40;100.00;97397.34;5049861;27;103161;-59
2022/03/27 07:44:45;;;;;;;26.87;19.13;;;;;;;8.90;100.00;97400.91;5048930;27;106333;-59
2022/03/27 07:47:12;;;;;;;24.97;18.17;;;;;;;8.89;100.00;97391.34;5052945;27;104510;-59
2022/03/27 07:49:41;;;;;;;24.90;18.50;;;;;;;8.95;100.00;97393.13;5050239;27;102916;-59
2022/03/27 07:52:08;;;;;;;26.27;18.67;;;;;;;9.04;100.00;97389.97;5048285;27;105797;-59
2022/03/27 07:54:36;;;;;;;26.07;18.63;;;;;;;9.23;100.00;97393.50;5048691;27;101770;-59
2022/03/27 07:57:03;;;;;;;25.43;18.17;;;;;;;9.19;100.00;97392.31;5048207;27;105623;-59
2022/03/27 07:59:30;;;;;;;23.77;18.10;;;;;;;8.88;100.00;97387.84;5047750;27;105253;-59
2022/03/27 08:02:04;;;;;;;24.40;19.07;;;;;;;9.10;100.00;97383.81;5048336;27;101989;-59
2022/03/27 08:04:31;;;;;;;22.07;17.90;;;;;;;9.19;100.00;97381.69;5048623;27;104823;-59
2022/03/27 08:07:00;;;;;;;24.17;17.00;;;;;;;9.33;100.00;97384.00;5047910;27;103956;-59
2022/03/27 08:09:27;;;;;;;26.57;19.40;;;;;;;9.35;100.00;97387.28;5051585;27;101850;-59
2022/03/27 08:12:20;;;;;;;26.57;18.87;;;;;;;9.50;100.00;97384.28;5047562;27;106268;-58
2022/03/27 08:14:53;;;;;;;25.90;18.97;;;;;;;9.42;100.00;97390.66;5048400;27;101986;-58
2022/03/27 08:17:20;;;;;;;26.67;19.67;;;;;;;9.47;100.00;97390.00;5049733;27;102683;-58
2022/03/27 08:19:49;;;;;;;25.93;18.90;;;;;;;9.36;100.00;97385.41;5047559;27;105389;-58
2022/03/27 08:22:19;;;;;;;24.33;18.53;;;;;;;9.70;100.00;97377.72;5048112;27;102069;-58
2022/03/27 08:24:47;;;;;;;27.33;19.50;;;;;;;9.55;100.00;97373.81;5048089;27;105460;-59
2022/03/27 08:27:14;;;;;;;23.40;18.70;;;;;;;9.79;100.00;97373.75;5047794;27;105159;-59
2022/03/27 08:29:48;;;;;;;26.43;19.97;;;;;;;10.48;100.00;97368.81;5048162;27;101841;-59
2022/03/27 08:32:17;;;;;;;26.07;19.40;;;;;;;10.48;100.00;97360.81;5051157;27;105513;-59
2022/03/27 08:34:46;;;;;;;25.83;19.00;;;;;;;10.83;100.00;97366.25;5049498;27;101814;-59
2022/03/27 08:37:15;;;;;;;25.20;19.43;;;;;;;10.80;100.00;97369.38;5047877;27;105339;-59
2022/03/27 08:39:58;;;;;;;27.30;19.30;;;;;;;10.25;100.00;97370.56;5049033;27;103228;-59
2022/03/27 08:42:26;;;;;;;25.63;18.07;;;;;;;10.47;100.00;97363.72;5053060;27;101657;-59
2022/03/27 08:45:02;;;;;;;23.83;18.53;;;;;;;11.18;100.00;97364.47;5034966;27;104970;-59
2022/03/27 08:47:29;;;;;;;25.80;19.20;;;;;;;11.36;100.00;97364.38;5052615;27;102658;-59
2022/03/27 08:53:52;;;;;;;24.70;18.23;;;;;;;11.55;98.90;97365.88;5052030;27;101959;-59
2022/03/27 08:56:21;;;;;;;26.03;18.73;;;;;;;11.25;100.00;97359.84;5050365;27;101901;-59
2022/03/27 08:58:48;;;;;;;25.80;19.13;;;;;;;11.11;100.00;97353.09;5052429;27;102607;-59
2022/03/27 09:01:17;;;;;;;24.13;18.07;;;;;;;11.80;97.80;97364.63;5050506;27;103886;-59
2022/03/27 09:03:44;;;;;;;23.20;17.50;;;;;;;12.18;91.98;97362.22;5051203;27;101880;-59
2022/03/27 09:06:11;;;;;;;24.67;19.30;;;;;;;12.48;91.79;97362.78;5051130;27;105230;-59
2022/03/27 09:08:39;;;;;;;25.73;18.90;;;;;;;12.12;88.49;97362.34;5050425;27;105327;-59
2022/03/27 09:11:06;;;;;;;23.90;18.17;;;;;;;12.09;91.74;97368.94;5051074;27;102006;-59
2022/03/27 09:13:35;;;;;;;23.23;17.70;;;;;;;12.44;86.50;97366.16;5052681;27;102922;-59
2022/03/27 09:16:05;;;;;;;25.30;18.60;;;;;;;12.44;87.28;97369.63;5053385;27;104979;-59
2022/03/27 09:18:47;;;;;;;23.13;18.10;;;;;;;12.65;86.39;97357.50;5050823;27;105232;-59
2022/03/27 09:21:14;;;;;;;23.90;18.13;;;;;;;12.94;82.51;97361.75;5050139;27;105819;-59
2022/03/27 09:23:41;;;;;;;23.27;17.53;;;;;;;13.27;80.26;97357.25;5050665;27;102212;-59
2022/03/27 09:26:11;;;;;;;22.70;18.10;;;;;;;13.89;79.57;97357.91;5049285;27;102908;-59
2022/03/27 09:28:41;;;;;;;23.97;18.53;;;;;;;13.99;69.80;97355.34;5049568;27;104043;-59
2022/03/27 09:31:22;;;;;;;22.13;17.67;;;;;;;13.90;70.23;97357.63;5047749;27;101967;-59
2022/03/27 09:33:51;;;;;;;22.83;18.60;;;;;;;13.89;69.21;97348.00;5048076;27;105316;-59
2022/03/27 09:36:21;;;;;;;21.97;17.43;;;;;;;14.28;68.72;97348.78;5050014;27;106798;-59
2022/03/27 09:38:59;;;;;;;21.30;18.10;;;;;;;14.75;73.06;97356.00;5054267;27;101934;-59
2022/03/27 09:41:33;;;;;;;25.17;18.40;;;;;;;15.04;69.11;97348.50;5049970;27;104941;-59
2022/03/27 09:44:04;;;;;;;23.60;17.07;;;;;;;15.24;65.23;97348.66;5050232;27;101883;-59
2022/03/27 09:46:52;;;;;;;23.60;18.57;;;;;;;15.18;62.54;97344.31;5050503;27;105133;-59
2022/03/27 09:49:21;;;;;;;24.37;18.57;;;;;;;14.96;60.81;97340.91;5050113;27;105563;-59
2022/03/27 09:51:58;;;;;;;21.57;17.67;;;;;;;14.87;62.17;97337.09;5050593;27;101905;-59
2022/03/27 09:54:26;;;;;;;22.97;17.67;;;;;;;15.55;64.01;97345.16;5052019;27;102430;-59
2022/03/27 09:56:53;;;;;;;20.60;17.17;;;;;;;15.46;60.48;97342.16;5050423;27;102657;-59
2022/03/27 09:59:37;;;;;;;22.07;18.30;;;;;;;15.02;62.35;97339.91;5049989;27;101964;-59
2022/03/27 10:02:24;;;;;;;23.10;18.47;;;;;;;15.28;60.83;97334.50;5052098;27;102818;-59
2022/03/27 10:05:00;;;;;;;21.67;17.70;;;;;;;15.58;60.05;97333.94;5031400;28;101880;-59
2022/03/27 10:07:28;;;;;;;23.57;18.47;;;;;;;15.12;60.15;97329.28;5029776;28;103720;-59
2022/03/27 10:09:56;;;;;;;20.97;17.53;;;;;;;15.86;63.51;97325.50;5045567;27;105581;-59
2022/03/27 10:12:29;;;;;;;23.07;18.23;;;;;;;15.96;57.04;97334.41;5051608;27;101730;-59
2022/03/27 10:15:00;;;;;;;26.30;18.33;;;;;;;15.59;59.27;97330.19;5051573;27;102815;-59
2022/03/27 10:17:29;;;;;;;24.70;19.13;;;;;;;15.85;56.80;97329.25;5050989;27;102985;-59
2022/03/27 10:20:00;;;;;;;24.10;18.53;;;;;;;15.31;58.66;97322.47;5051185;27;101963;-59
2022/03/27 10:22:30;;;;;;;22.83;19.50;;;;;;;15.92;60.18;97311.84;5051498;27;102382;-59
2022/03/27 10:25:02;;;;;;;24.30;18.73;;;;;;;16.59;56.67;97314.53;5052751;27;104111;-59
2022/03/27 10:27:30;;;;;;;20.77;17.27;;;;;;;16.35;54.00;97313.38;5051288;27;102346;-59
2022/03/27 10:30:00;;;;;;;22.87;18.90;;;;;;;16.63;55.78;97308.34;5050642;27;102542;-59
2022/03/27 10:32:27;;;;;;;24.00;18.57;;;;;;;16.42;53.34;97314.78;5049784;27;101764;-59
2022/03/27 10:35:07;;;;;;;22.70;17.93;;;;;;;16.27;54.56;97311.19;5051182;27;102687;-59
2022/03/27 10:37:38;;;;;;;21.43;17.73;;;;;;;16.50;54.37;97313.41;5050579;27;102765;-59
2022/03/27 10:40:13;;;;;;;20.93;17.57;;;;;;;16.63;53.17;97299.50;5049716;27;102007;-59
2022/03/27 10:42:56;;;;;;;23.07;17.53;;;;;;;17.08;51.63;97297.66;5048954;27;105754;-59
2022/03/27 10:45:25;;;;;;;21.30;17.23;;;;;;;17.08;50.75;97294.97;5048454;27;102520;-59
2022/03/27 10:48:16;;;;;;;22.97;17.57;;;;;;;17.75;49.00;97298.13;5052484;27;102400;-59
2022/03/27 10:50:49;;;;;;;21.83;18.40;;;;;;;17.97;47.75;97290.50;5029748;28;102761;-59
2022/03/27 10:53:17;;;;;;;21.33;17.50;;;;;;;17.50;48.92;97289.31;5030664;28;101797;-59
2022/03/27 10:55:46;;;;;;;21.07;17.57;;;;;;;17.46;50.56;97285.53;5028753;28;105381;-59
2022/03/27 10:58:36;;;;;;;19.40;16.20;;;;;;;17.62;49.29;97281.75;5028483;28;105891;-59
2022/03/27 11:01:07;;;;;;;19.13;16.10;;;;;;;18.63;48.57;97281.03;5042442;27;101820;-59
2022/03/27 11:04:04;;;;;;;20.90;14.60;;;;;;;19.13;41.17;97280.66;5049849;27;102537;-59
2022/03/27 11:06:32;;;;;;;20.13;15.27;;;;;;;19.75;39.59;97279.81;5050246;27;103122;-60
2022/03/27 11:09:02;;;;;;;17.80;13.63;;;;;;;20.03;37.59;97281.66;5054026;27;102617;-61
2022/03/27 11:11:55;;;;;;;18.47;14.73;;;;;;;20.23;36.06;97276.03;5048573;27;105734;-59
2022/03/27 11:15:00;;;;;;;18.67;14.13;;;;;;;20.26;34.84;97270.88;5048831;27;101903;-58
2022/03/27 11:17:37;;;;;;;18.43;14.33;;;;;;;20.24;35.58;97272.25;5049102;27;103551;-58
2022/03/27 11:20:06;;;;;;;15.97;13.03;;;;;;;20.57;34.99;97260.44;5048437;27;105263;-58
2022/03/27 11:22:52;;;;;;;16.00;13.27;;;;;;;20.73;35.62;97264.53;5048526;27;101857;-58
2022/03/27 11:25:35;;;;;;;15.17;13.13;;;;;;;20.95;36.09;97253.94;5048826;27;105240;-59
2022/03/27 11:28:11;;;;;;;16.50;13.27;;;;;;;20.97;36.06;97255.25;5048036;27;105718;-58
2022/03/27 11:30:41;;;;;;;15.70;12.57;;;;;;;20.80;35.49;97251.44;5048863;27;101925;-58
2022/03/27 11:33:14;;;;;;;14.10;12.30;;;;;;;21.01;34.30;97255.47;5051654;27;105910;-59
2022/03/27 11:35:43;;;;;;;16.73;13.30;;;;;;;21.21;34.62;97255.91;5050458;27;102074;-59
2022/03/27 11:38:20;;;;;;;17.03;13.00;;;;;;;21.27;35.11;97259.34;5048495;27;104876;-58
2022/03/27 11:40:48;;;;;;;14.60;12.87;;;;;;;21.08;33.63;97250.50;5049524;27;102958;-57